Time;durP1;ratioP1;P1;durP2;ratioP2;P2;SDS_P1;SDS_P2;PMS_P1;PMS_P2;Temp;Humidity;BMP_temperature;BMP_pressure;BME280_temperature;BME280_humidity;BME280_pressure;Samples;Min_cycle;Max_cycle;Signal;HPM_P1;HPM_P2
2023/08/01 00:00:39;;;;;;;4.20;3.30;;;;;;;;;;5087805;28;20246;-64
2023/08/01 00:03:06;;;;;;;4.97;3.27;;;;;;;;;;5098109;28;20238;-63
2023/08/01 00:05:35;;;;;;;4.97;3.17;;;;;;;;;;5097850;28;20202;-64
2023/08/01 00:08:03;;;;;;;4.53;2.73;;;;;;;;;;5097660;28;20205;-64
2023/08/01 00:10:31;;;;;;;5.63;3.07;;;;;;;;;;5097746;28;20231;-65
2023/08/01 00:12:59;;;;;;;4.67;3.30;;;;;;;;;;5097696;28;20220;-64
2023/08/01 00:15:26;;;;;;;5.23;3.50;;;;;;;;;;5097743;28;20275;-64
2023/08/01 00:17:54;;;;;;;3.87;3.10;;;;;;;;;;5097714;28;20205;-65
2023/08/01 00:20:22;;;;;;;4.07;3.13;;;;;;;;;;5097696;28;20228;-64
2023/08/01 00:22:51;;;;;;;3.57;2.90;;;;;;;;;;5097557;28;20206;-64
2023/08/01 00:25:19;;;;;;;4.03;2.97;;;;;;;;;;5097930;28;20212;-64
2023/08/01 00:27:47;;;;;;;4.73;3.10;;;;;;;;;;5097923;28;20289;-64
2023/08/01 00:30:14;;;;;;;5.27;3.10;;;;;;;;;;5097513;28;20263;-64
2023/08/01 00:32:43;;;;;;;5.97;3.00;;;;;;;;;;5097489;28;20213;-64
2023/08/01 00:35:11;;;;;;;5.43;3.03;;;;;;;;;;5097515;28;20222;-65
2023/08/01 00:37:39;;;;;;;5.83;3.40;;;;;;;;;;5099343;28;20209;-64
2023/08/01 00:40:11;;;;;;;3.67;3.00;;;;;;;;;;5096471;28;20223;-64
2023/08/01 00:42:39;;;;;;;7.27;3.47;;;;;;;;;;5101504;28;20224;-63
2023/08/01 00:45:07;;;;;;;5.70;4.40;;;;;;;;;;5101706;28;20657;-63
2023/08/01 00:47:35;;;;;;;5.23;3.67;;;;;;;;;;5101718;28;20204;-63
2023/08/01 00:50:03;;;;;;;6.20;3.27;;;;;;;;;;5101296;28;20218;-63
2023/08/01 00:52:31;;;;;;;5.40;3.30;;;;;;;;;;5101467;28;20209;-64
2023/08/01 00:54:59;;;;;;;5.37;3.37;;;;;;;;;;5101429;28;20234;-64
2023/08/01 00:57:28;;;;;;;7.73;3.70;;;;;;;;;;5101236;28;20313;-63
2023/08/01 00:59:56;;;;;;;5.63;3.50;;;;;;;;;;5091456;28;20247;-64
2023/08/01 01:02:24;;;;;;;5.17;3.00;;;;;;;;;;5101162;28;20211;-65
2023/08/01 01:04:52;;;;;;;3.13;2.80;;;;;;;;;;5101085;28;20248;-63
2023/08/01 01:07:20;;;;;;;4.60;3.00;;;;;;;;;;5101182;28;20213;-63
2023/08/01 01:09:48;;;;;;;7.63;3.67;;;;;;;;;;5101199;28;20219;-65
2023/08/01 01:12:16;;;;;;;4.53;2.80;;;;;;;;;;5101197;28;20212;-65
2023/08/01 01:14:45;;;;;;;6.80;3.20;;;;;;;;;;5101109;28;20268;-65
2023/08/01 01:17:13;;;;;;;4.00;3.20;;;;;;;;;;5100895;28;20221;-64
2023/08/01 01:19:41;;;;;;;5.77;3.13;;;;;;;;;;5100477;28;20210;-65
2023/08/01 01:22:11;;;;;;;4.33;3.10;;;;;;;;;;5100636;28;20570;-65
2023/08/01 01:24:40;;;;;;;4.60;3.23;;;;;;;;;;5100700;28;20631;-65
2023/08/01 01:27:08;;;;;;;6.50;2.90;;;;;;;;;;5100930;28;20213;-65
2023/08/01 01:29:36;;;;;;;4.23;3.27;;;;;;;;;;5100763;28;20213;-65
2023/08/01 01:32:05;;;;;;;4.30;3.17;;;;;;;;;;5100475;28;20303;-64
2023/08/01 01:34:32;;;;;;;4.37;2.67;;;;;;;;;;5100557;28;20212;-65
2023/08/01 01:37:00;;;;;;;6.43;3.27;;;;;;;;;;5100570;28;20214;-64
2023/08/01 01:39:29;;;;;;;5.83;3.60;;;;;;;;;;5100381;28;20241;-65
2023/08/01 01:41:57;;;;;;;6.03;3.33;;;;;;;;;;5093738;28;20212;-63
2023/08/01 01:44:25;;;;;;;5.47;3.40;;;;;;;;;;5100610;28;20734;-65
2023/08/01 01:46:53;;;;;;;5.90;2.93;;;;;;;;;;5100761;28;20250;-65
2023/08/01 01:49:20;;;;;;;3.17;2.77;;;;;;;;;;5099727;28;20677;-65
2023/08/01 01:51:48;;;;;;;4.83;2.90;;;;;;;;;;5099759;28;20323;-65
2023/08/01 01:54:16;;;;;;;3.33;3.03;;;;;;;;;;5100448;28;20237;-65
2023/08/01 01:56:45;;;;;;;3.40;3.00;;;;;;;;;;5100073;28;20223;-65
2023/08/01 01:59:13;;;;;;;5.97;3.27;;;;;;;;;;5095220;28;20241;-63
2023/08/01 02:01:40;;;;;;;4.17;3.27;;;;;;;;;;5095172;28;20344;-63
2023/08/01 02:04:08;;;;;;;5.00;3.10;;;;;;;;;;5100021;28;20217;-63
2023/08/01 02:06:36;;;;;;;5.73;3.40;;;;;;;;;;5099528;28;20223;-65
2023/08/01 02:09:04;;;;;;;4.80;3.07;;;;;;;;;;5100149;28;20295;-65
2023/08/01 02:11:32;;;;;;;5.63;3.43;;;;;;;;;;5099742;28;20259;-65
2023/08/01 02:14:01;;;;;;;4.87;3.43;;;;;;;;;;5100079;28;20211;-64
2023/08/01 02:16:29;;;;;;;6.60;3.30;;;;;;;;;;5099835;28;20263;-64
2023/08/01 02:18:57;;;;;;;4.70;3.17;;;;;;;;;;5099991;28;20273;-63
2023/08/01 02:21:25;;;;;;;4.03;3.60;;;;;;;;;;5099467;28;20248;-64
2023/08/01 02:23:52;;;;;;;4.80;3.47;;;;;;;;;;5099873;28;20212;-64
2023/08/01 02:26:22;;;;;;;4.53;3.10;;;;;;;;;;5099820;28;20650;-63
2023/08/01 02:28:50;;;;;;;4.90;3.50;;;;;;;;;;5099491;28;20578;-63
2023/08/01 02:31:19;;;;;;;3.77;2.87;;;;;;;;;;5099239;28;20320;-63
2023/08/01 02:33:47;;;;;;;7.17;3.33;;;;;;;;;;5099707;28;20294;-65
2023/08/01 02:36:14;;;;;;;4.27;3.23;;;;;;;;;;5098961;28;20243;-65
2023/08/01 02:38:42;;;;;;;6.07;3.77;;;;;;;;;;5099503;28;20238;-64
2023/08/01 02:41:10;;;;;;;4.03;3.27;;;;;;;;;;5092943;28;20586;-64
2023/08/01 02:43:38;;;;;;;5.43;3.00;;;;;;;;;;5099435;28;20219;-64
2023/08/01 02:46:06;;;;;;;5.50;3.40;;;;;;;;;;5099500;28;20204;-63
2023/08/01 02:48:35;;;;;;;4.13;2.73;;;;;;;;;;5099316;28;20206;-63
2023/08/01 02:51:03;;;;;;;6.60;3.30;;;;;;;;;;5098544;28;20591;-65
2023/08/01 02:53:31;;;;;;;4.43;3.60;;;;;;;;;;5099030;28;20638;-65
2023/08/01 02:55:59;;;;;;;7.87;3.67;;;;;;;;;;5099180;28;20225;-65
2023/08/01 02:58:26;;;;;;;5.93;3.70;;;;;;;;;;5099146;28;20236;-65
2023/08/01 03:00:54;;;;;;;5.77;3.50;;;;;;;;;;5088136;28;20236;-64
2023/08/01 03:03:22;;;;;;;5.03;3.70;;;;;;;;;;5099085;28;20215;-64
2023/08/01 03:05:51;;;;;;;6.20;3.17;;;;;;;;;;5098810;28;20209;-63
2023/08/01 03:08:19;;;;;;;5.07;3.57;;;;;;;;;;5098667;28;20242;-64
2023/08/01 03:10:47;;;;;;;4.43;3.27;;;;;;;;;;5098889;28;20257;-64
2023/08/01 03:13:15;;;;;;;4.23;3.23;;;;;;;;;;5098638;28;20202;-65
2023/08/01 03:15:42;;;;;;;5.77;3.33;;;;;;;;;;5098782;28;20255;-66
2023/08/01 03:18:12;;;;;;;6.27;3.87;;;;;;;;;;5098580;28;20268;-65
2023/08/01 03:20:40;;;;;;;4.93;3.77;;;;;;;;;;5098492;28;20230;-64
2023/08/01 03:23:10;;;;;;;4.97;3.30;;;;;;;;;;5098352;28;20543;-64
2023/08/01 03:25:37;;;;;;;4.83;3.30;;;;;;;;;;5098434;28;20578;-64
2023/08/01 03:28:05;;;;;;;6.10;3.90;;;;;;;;;;5098602;28;20206;-64
2023/08/01 03:30:33;;;;;;;3.93;3.20;;;;;;;;;;5098505;28;20238;-64
2023/08/01 03:33:02;;;;;;;5.00;3.10;;;;;;;;;;5098265;28;20218;-64
2023/08/01 03:35:30;;;;;;;5.00;3.10;;;;;;;;;;5098022;28;20618;-65
2023/08/01 03:37:58;;;;;;;6.00;3.27;;;;;;;;;;5098396;28;20294;-64
2023/08/01 03:40:27;;;;;;;5.13;3.30;;;;;;;;;;5091228;28;20221;-64
2023/08/01 03:42:55;;;;;;;4.37;3.07;;;;;;;;;;5098493;28;20218;-65
2023/08/01 03:45:23;;;;;;;6.57;3.23;;;;;;;;;;5098440;28;20215;-65
2023/08/01 03:47:50;;;;;;;4.13;3.13;;;;;;;;;;5098200;28;20692;-65
2023/08/01 03:50:18;;;;;;;5.73;2.90;;;;;;;;;;5097880;28;20253;-65
2023/08/01 03:52:46;;;;;;;4.00;2.97;;;;;;;;;;5098257;28;20206;-65
2023/08/01 03:55:14;;;;;;;5.33;3.17;;;;;;;;;;5097949;28;20203;-65
2023/08/01 03:57:43;;;;;;;5.77;3.60;;;;;;;;;;5098174;28;20227;-64
2023/08/01 04:00:13;;;;;;;7.63;3.17;;;;;;;;;;5087958;28;20247;-65
2023/08/01 04:02:42;;;;;;;4.07;2.87;;;;;;;;;;5098210;28;20234;-64
2023/08/01 04:05:13;;;;;;;4.33;2.77;;;;;;;;;;5097858;28;20241;-64
2023/08/01 04:07:41;;;;;;;4.27;3.00;;;;;;;;;;5097997;28;20228;-64
2023/08/01 04:10:09;;;;;;;4.13;2.53;;;;;;;;;;5098008;28;20585;-64
2023/08/01 04:12:36;;;;;;;4.93;2.87;;;;;;;;;;5097768;28;20723;-64
2023/08/01 04:15:06;;;;;;;5.00;2.97;;;;;;;;;;5097732;28;20211;-65
2023/08/01 04:17:34;;;;;;;5.77;2.97;;;;;;;;;;5097960;28;20262;-63
2023/08/01 04:20:02;;;;;;;6.33;4.10;;;;;;;;;;5097396;28;20713;-63
2023/08/01 04:22:29;;;;;;;6.33;3.30;;;;;;;;;;5097568;28;20594;-65
2023/08/01 04:24:57;;;;;;;6.70;2.70;;;;;;;;;;5097983;28;20222;-65
2023/08/01 04:27:25;;;;;;;7.10;3.73;;;;;;;;;;5097533;28;20733;-64
2023/08/01 04:29:54;;;;;;;7.80;3.27;;;;;;;;;;5098049;28;20655;-65
2023/08/01 04:32:23;;;;;;;3.57;2.77;;;;;;;;;;5097755;28;20285;-63
2023/08/01 04:34:51;;;;;;;4.80;2.60;;;;;;;;;;5097582;28;20203;-63
2023/08/01 04:37:20;;;;;;;4.10;2.53;;;;;;;;;;5097602;28;20726;-64
2023/08/01 04:39:48;;;;;;;4.00;2.97;;;;;;;;;;5095387;28;20211;-63
2023/08/01 04:42:16;;;;;;;5.40;3.23;;;;;;;;;;5093089;28;20300;-65
2023/08/01 04:44:43;;;;;;;4.47;2.83;;;;;;;;;;5097861;28;20295;-65
2023/08/01 04:47:11;;;;;;;6.93;3.30;;;;;;;;;;5097431;28;20216;-63
2023/08/01 04:49:40;;;;;;;7.73;3.33;;;;;;;;;;5097344;28;20222;-63
2023/08/01 04:52:08;;;;;;;6.87;3.27;;;;;;;;;;5097478;28;20236;-64
2023/08/01 04:54:36;;;;;;;9.07;3.33;;;;;;;;;;5097676;28;20211;-64
2023/08/01 04:57:04;;;;;;;3.33;2.47;;;;;;;;;;5097606;28;20232;-64
2023/08/01 04:59:32;;;;;;;5.30;3.10;;;;;;;;;;5089835;28;20607;-65
2023/08/01 05:01:59;;;;;;;3.90;2.80;;;;;;;;;;5095228;28;20242;-63
2023/08/01 05:04:27;;;;;;;5.20;3.10;;;;;;;;;;5097083;28;20620;-65
2023/08/01 05:06:56;;;;;;;4.03;2.90;;;;;;;;;;5097466;28;20203;-64
2023/08/01 05:09:24;;;;;;;4.33;3.20;;;;;;;;;;5097302;28;20233;-64
2023/08/01 05:11:52;;;;;;;6.30;3.00;;;;;;;;;;5097150;28;20323;-63
2023/08/01 05:14:20;;;;;;;8.03;3.63;;;;;;;;;;5097419;28;20294;-63
2023/08/01 05:16:47;;;;;;;7.13;3.07;;;;;;;;;;5097346;28;20266;-65
2023/08/01 05:19:15;;;;;;;4.30;2.93;;;;;;;;;;5097246;28;20258;-64
2023/08/01 05:21:43;;;;;;;3.10;2.63;;;;;;;;;;5096695;28;20596;-65
2023/08/01 05:24:12;;;;;;;7.50;3.27;;;;;;;;;;5098215;28;20557;-65
2023/08/01 05:26:39;;;;;;;3.53;2.80;;;;;;;;;;5101061;28;20204;-65
2023/08/01 05:29:08;;;;;;;4.13;3.00;;;;;;;;;;5100928;28;20684;-65
2023/08/01 05:31:35;;;;;;;3.17;2.73;;;;;;;;;;5100527;28;20690;-65
2023/08/01 05:34:05;;;;;;;3.67;2.53;;;;;;;;;;5100562;28;20217;-65
2023/08/01 05:36:33;;;;;;;7.40;3.00;;;;;;;;;;5100354;28;20203;-65
2023/08/01 05:39:00;;;;;;;5.33;2.80;;;;;;;;;;5100751;28;20215;-65
2023/08/01 05:41:30;;;;;;;9.57;3.13;;;;;;;;;;5092771;28;20611;-64
2023/08/01 05:43:57;;;;;;;3.80;2.63;;;;;;;;;;5100620;28;20655;-65
2023/08/01 05:46:25;;;;;;;6.90;3.00;;;;;;;;;;5101082;28;20217;-63
2023/08/01 05:48:53;;;;;;;4.73;2.63;;;;;;;;;;5100422;28;20655;-65
2023/08/01 05:51:20;;;;;;;3.57;2.67;;;;;;;;;;5099972;28;20319;-64
2023/08/01 05:53:48;;;;;;;3.93;2.63;;;;;;;;;;5100322;28;20216;-63
2023/08/01 05:56:16;;;;;;;5.00;2.67;;;;;;;;;;5100401;28;20217;-63
2023/08/01 05:58:45;;;;;;;4.70;2.63;;;;;;;;;;5099191;28;20314;-65
2023/08/01 06:01:13;;;;;;;4.30;2.93;;;;;;;;;;5090791;28;20251;-63
2023/08/01 06:03:41;;;;;;;5.20;2.70;;;;;;;;;;5100218;28;20220;-65
2023/08/01 06:06:08;;;;;;;4.20;2.63;;;;;;;;;;5099560;28;20234;-63
2023/08/01 06:08:36;;;;;;;4.30;2.80;;;;;;;;;;5099786;28;20336;-64
2023/08/01 06:11:04;;;;;;;3.80;2.37;;;;;;;;;;5100214;28;20239;-64
2023/08/01 06:13:32;;;;;;;2.70;2.27;;;;;;;;;;5099673;28;20316;-64
2023/08/01 06:16:01;;;;;;;3.00;2.60;;;;;;;;;;5099822;28;20223;-64
2023/08/01 06:18:29;;;;;;;6.37;2.77;;;;;;;;;;5099829;28;20227;-65
2023/08/01 06:20:57;;;;;;;3.27;2.73;;;;;;;;;;5099229;28;20281;-65
2023/08/01 06:23:24;;;;;;;7.90;2.30;;;;;;;;;;5099437;28;20236;-65
2023/08/01 06:25:52;;;;;;;4.70;3.50;;;;;;;;;;5099751;28;20216;-65
2023/08/01 06:28:20;;;;;;;4.20;2.77;;;;;;;;;;5099718;28;20292;-64
2023/08/01 06:30:48;;;;;;;7.23;2.67;;;;;;;;;;5099469;28;20239;-63
2023/08/01 06:33:17;;;;;;;5.00;2.70;;;;;;;;;;5099585;28;20280;-64
2023/08/01 06:35:45;;;;;;;6.23;2.90;;;;;;;;;;5099108;28;20207;-64
2023/08/01 06:38:12;;;;;;;5.63;2.57;;;;;;;;;;5099066;28;20246;-65
2023/08/01 06:40:43;;;;;;;8.67;3.33;;;;;;;;;;5091762;28;20308;-64
2023/08/01 06:43:10;;;;;;;7.63;2.97;;;;;;;;;;5099162;28;20202;-64
2023/08/01 06:45:38;;;;;;;3.27;2.33;;;;;;;;;;5099120;28;20574;-64
2023/08/01 06:48:06;;;;;;;3.90;2.70;;;;;;;;;;5099340;28;20204;-64
2023/08/01 06:50:35;;;;;;;6.90;3.00;;;;;;;;;;5098802;28;20227;-64
2023/08/01 06:53:03;;;;;;;4.07;2.50;;;;;;;;;;5098875;28;20728;-64
2023/08/01 06:55:31;;;;;;;5.13;2.43;;;;;;;;;;5098879;28;20551;-64
2023/08/01 06:57:58;;;;;;;7.67;3.77;;;;;;;;;;5099119;28;20229;-64
2023/08/01 07:00:26;;;;;;;3.87;2.73;;;;;;;;;;5088418;28;20250;-64
2023/08/01 07:02:54;;;;;;;4.73;2.93;;;;;;;;;;5099054;28;20272;-64
2023/08/01 07:05:22;;;;;;;4.50;2.70;;;;;;;;;;5098375;28;20663;-64
2023/08/01 07:07:51;;;;;;;6.37;2.90;;;;;;;;;;5098862;28;20199;-64
2023/08/01 07:10:20;;;;;;;7.67;2.93;;;;;;;;;;5098847;28;20231;-64
2023/08/01 07:12:47;;;;;;;5.53;2.40;;;;;;;;;;5098956;28;20215;-64
2023/08/01 07:15:15;;;;;;;7.27;3.10;;;;;;;;;;5098893;28;20212;-65
2023/08/01 07:17:43;;;;;;;4.00;2.07;;;;;;;;;;5098753;28;20216;-64
2023/08/01 07:20:11;;;;;;;4.40;2.50;;;;;;;;;;5098264;28;20235;-64
2023/08/01 07:22:39;;;;;;;9.93;2.80;;;;;;;;;;5098654;28;20272;-65
2023/08/01 07:25:09;;;;;;;5.20;2.50;;;;;;;;;;5098750;28;20237;-64
2023/08/01 07:27:39;;;;;;;4.53;2.70;;;;;;;;;;5098388;28;20208;-64
2023/08/01 07:30:09;;;;;;;5.10;2.83;;;;;;;;;;5098250;28;20234;-64
2023/08/01 07:32:38;;;;;;;5.10;2.53;;;;;;;;;;5098477;28;20240;-64
2023/08/01 07:35:06;;;;;;;5.50;2.83;;;;;;;;;;5098308;28;20246;-64
2023/08/01 07:37:34;;;;;;;6.67;2.27;;;;;;;;;;5098416;28;20285;-65
2023/08/01 07:40:01;;;;;;;4.40;2.57;;;;;;;;;;5094132;28;20221;-64
2023/08/01 07:42:31;;;;;;;6.23;2.50;;;;;;;;;;5095303;28;20244;-65
2023/08/01 07:44:58;;;;;;;2.77;2.30;;;;;;;;;;5098438;28;20291;-64
2023/08/01 07:47:26;;;;;;;4.73;2.30;;;;;;;;;;5097653;28;20204;-64
2023/08/01 07:49:54;;;;;;;4.10;2.43;;;;;;;;;;5097987;28;20224;-64
2023/08/01 07:52:22;;;;;;;5.10;2.40;;;;;;;;;;5097852;28;20625;-64
2023/08/01 07:54:49;;;;;;;4.53;2.13;;;;;;;;;;5098301;28;20671;-64
2023/08/01 07:57:17;;;;;;;2.47;1.97;;;;;;;;;;5098214;28;20206;-64
2023/08/01 07:59:46;;;;;;;5.23;2.53;;;;;;;;;;5088472;28;20246;-64
2023/08/01 08:02:14;;;;;;;5.20;2.57;;;;;;;;;;5084302;28;20214;-64
2023/08/01 08:04:44;;;;;;;4.47;2.50;;;;;;;;;;5097863;28;20536;-64
2023/08/01 08:07:12;;;;;;;3.37;2.27;;;;;;;;;;5098098;28;20208;-65
2023/08/01 08:09:39;;;;;;;10.07;2.73;;;;;;;;;;5097700;28;20208;-64
2023/08/01 08:12:07;;;;;;;4.57;2.70;;;;;;;;;;5097814;28;20230;-65
2023/08/01 08:14:35;;;;;;;4.97;2.23;;;;;;;;;;5098025;28;20635;-64
2023/08/01 08:17:04;;;;;;;3.97;2.80;;;;;;;;;;5097784;28;20300;-64
2023/08/01 08:19:32;;;;;;;3.13;2.23;;;;;;;;;;5097503;28;20262;-64
2023/08/01 08:22:00;;;;;;;4.00;2.33;;;;;;;;;;5097603;28;20796;-64
2023/08/01 08:24:28;;;;;;;4.00;2.47;;;;;;;;;;5097625;28;20230;-65
2023/08/01 08:26:56;;;;;;;3.40;2.20;;;;;;;;;;5097749;28;20212;-65
2023/08/01 08:29:23;;;;;;;2.73;2.30;;;;;;;;;;5097905;28;20231;-64
2023/08/01 08:31:51;;;;;;;2.77;2.37;;;;;;;;;;5097525;28;20315;-64
2023/08/01 08:34:20;;;;;;;3.77;2.30;;;;;;;;;;5097564;28;20653;-64
2023/08/01 08:36:49;;;;;;;2.53;2.10;;;;;;;;;;5097767;28;20304;-64
2023/08/01 08:39:18;;;;;;;3.73;2.20;;;;;;;;;;5097697;28;20234;-65
2023/08/01 08:41:47;;;;;;;4.13;2.20;;;;;;;;;;5090987;28;20219;-65
2023/08/01 08:44:15;;;;;;;5.87;2.47;;;;;;;;;;5097474;28;20207;-65
2023/08/01 08:46:44;;;;;;;4.03;2.13;;;;;;;;;;5097393;28;20234;-65
2023/08/01 08:49:15;;;;;;;4.33;2.43;;;;;;;;;;5097499;28;20203;-65
2023/08/01 08:51:44;;;;;;;4.57;2.47;;;;;;;;;;5097195;28;20224;-64
2023/08/01 08:54:13;;;;;;;2.57;2.37;;;;;;;;;;5097759;28;20208;-65
2023/08/01 08:56:41;;;;;;;3.20;2.30;;;;;;;;;;5097382;28;20263;-65
2023/08/01 08:59:10;;;;;;;2.63;1.90;;;;;;;;;;5094092;28;21237;-64
2023/08/01 09:01:39;;;;;;;5.03;2.13;;;;;;;;;;5096222;28;20315;-65
2023/08/01 09:04:07;;;;;;;3.53;2.17;;;;;;;;;;5101444;28;20201;-65
2023/08/01 09:06:36;;;;;;;3.83;2.33;;;;;;;;;;5100850;28;20632;-64
2023/08/01 09:09:05;;;;;;;4.00;2.20;;;;;;;;;;5101407;28;20205;-64
2023/08/01 09:11:39;;;;;;;5.07;2.30;;;;;;;;;;5101027;28;20247;-64
2023/08/01 09:14:09;;;;;;;4.20;1.90;;;;;;;;;;5101018;28;20331;-64
2023/08/01 09:16:37;;;;;;;3.37;2.10;;;;;;;;;;5101162;28;20258;-64
2023/08/01 09:19:06;;;;;;;1.33;1.23;;;;;;;;;;5101057;28;20228;-64
2023/08/01 09:21:34;;;;;;;1.67;1.17;;;;;;;;;;5100674;28;20234;-64
2023/08/01 09:24:10;;;;;;;2.70;1.27;;;;;;;;;;5100825;28;20213;-64
2023/08/01 09:26:39;;;;;;;1.93;1.30;;;;;;;;;;5101065;28;20247;-64
2023/08/01 09:29:09;;;;;;;1.87;1.50;;;;;;;;;;5100992;28;20212;-65
2023/08/01 09:31:39;;;;;;;1.10;1.00;;;;;;;;;;5100766;28;20225;-65
2023/08/01 09:34:19;;;;;;;1.50;1.00;;;;;;;;;;5100639;28;20295;-64
2023/08/01 09:36:47;;;;;;;1.13;1.00;;;;;;;;;;5100669;28;20203;-63
2023/08/01 09:39:18;;;;;;;2.30;1.27;;;;;;;;;;5100679;28;20792;-63
2023/08/01 09:41:46;;;;;;;1.07;0.97;;;;;;;;;;5093351;28;20588;-63
2023/08/01 09:44:16;;;;;;;3.40;1.20;;;;;;;;;;5100737;28;20215;-64
2023/08/01 09:46:44;;;;;;;1.37;1.00;;;;;;;;;;5100454;28;20296;-64
2023/08/01 09:49:12;;;;;;;2.87;1.30;;;;;;;;;;5100206;28;20302;-65
2023/08/01 09:51:47;;;;;;;1.57;0.80;;;;;;;;;;5100220;28;20590;-65
2023/08/01 09:54:16;;;;;;;1.73;1.00;;;;;;;;;;5100743;28;20295;-64
2023/08/01 09:56:45;;;;;;;1.90;1.10;;;;;;;;;;5100360;28;20690;-65
2023/08/01 09:59:16;;;;;;;1.77;1.30;;;;;;;;;;5095131;28;20728;-64
2023/08/01 10:01:44;;;;;;;3.67;1.30;;;;;;;;;;5095797;28;20232;-65
2023/08/01 10:04:13;;;;;;;1.40;1.17;;;;;;;;;;5100089;28;20218;-66
2023/08/01 10:06:44;;;;;;;1.10;1.10;;;;;;;;;;5099853;28;20256;-64
2023/08/01 10:09:11;;;;;;;2.83;1.30;;;;;;;;;;5099874;28;20629;-65
2023/08/01 10:11:40;;;;;;;1.23;1.10;;;;;;;;;;5099511;28;20222;-65
2023/08/01 10:14:09;;;;;;;3.47;1.40;;;;;;;;;;5100069;28;20210;-65
2023/08/01 10:16:37;;;;;;;2.43;1.60;;;;;;;;;;5099749;28;20606;-64
2023/08/01 10:19:07;;;;;;;1.77;1.00;;;;;;;;;;5099739;28;20213;-64
2023/08/01 10:21:35;;;;;;;2.57;1.23;;;;;;;;;;5099420;28;20222;-63
2023/08/01 10:24:03;;;;;;;1.77;1.27;;;;;;;;;;5099620;28;20249;-64
2023/08/01 10:26:31;;;;;;;1.00;0.77;;;;;;;;;;5099726;28;20211;-65
2023/08/01 10:29:01;;;;;;;1.37;0.73;;;;;;;;;;5099740;28;20233;-65
2023/08/01 10:31:30;;;;;;;1.10;0.77;;;;;;;;;;5099667;28;20228;-65
2023/08/01 10:34:05;;;;;;;1.30;0.70;;;;;;;;;;5099572;28;20279;-64
2023/08/01 10:36:33;;;;;;;1.87;1.00;;;;;;;;;;5099225;28;20211;-65
2023/08/01 10:39:02;;;;;;;0.80;0.80;;;;;;;;;;5099289;28;20731;-65
2023/08/01 10:41:31;;;;;;;1.37;1.17;;;;;;;;;;5092053;28;20309;-65
2023/08/01 10:44:05;;;;;;;1.30;0.90;;;;;;;;;;5099377;28;20608;-65
2023/08/01 10:46:47;;;;;;;1.20;1.10;;;;;;;;;;5099461;28;20671;-65
2023/08/01 10:49:15;;;;;;;1.20;1.10;;;;;;;;;;5099137;28;20287;-65
2023/08/01 10:51:42;;;;;;;3.72;1.65;;;;;;;;;;5099167;28;20232;-65
2023/08/01 10:54:21;;;;;;;2.00;1.63;;;;;;;;;;5099065;28;20215;-65
2023/08/01 10:56:51;;;;;;;1.20;0.90;;;;;;;;;;5099150;28;20207;-65
2023/08/01 10:59:19;;;;;;;1.63;0.98;;;;;;;;;;5093289;28;20233;-65
2023/08/01 11:01:49;;;;;;;1.65;1.55;;;;;;;;;;5094903;28;20261;-65
2023/08/01 11:04:17;;;;;;;1.50;1.30;;;;;;;;;;5098596;28;20667;-65
2023/08/01 11:06:46;;;;;;;1.17;1.10;;;;;;;;;;5098659;28;20646;-65
2023/08/01 11:09:17;;;;;;;1.60;1.10;;;;;;;;;;5098730;28;20211;-65
2023/08/01 11:11:46;;;;;;;1.85;1.58;;;;;;;;;;5098838;28;20234;-65
2023/08/01 11:14:14;;;;;;;1.20;1.10;;;;;;;;;;5098960;28;20209;-64
2023/08/01 11:16:43;;;;;;;1.20;1.10;;;;;;;;;;5098842;28;20209;-65
2023/08/01 11:19:20;;;;;;;1.40;1.25;;;;;;;;;;5098353;28;20232;-64
2023/08/01 11:21:48;;;;;;;1.58;1.25;;;;;;;;;;5097743;28;20675;-65
2023/08/01 11:24:16;;;;;;;2.17;1.10;;;;;;;;;;5098652;28;20200;-65
2023/08/01 11:26:44;;;;;;;1.25;1.08;;;;;;;;;;5098479;28;20549;-65
2023/08/01 11:29:12;;;;;;;2.50;1.35;;;;;;;;;;5098618;28;20209;-65
2023/08/01 11:31:40;;;;;;;3.10;1.20;;;;;;;;;;5098514;28;20225;-65
2023/08/01 11:34:09;;;;;;;1.40;1.30;;;;;;;;;;5098255;28;20236;-65
2023/08/01 11:36:38;;;;;;;1.27;1.17;;;;;;;;;;5098538;28;20662;-64
2023/08/01 11:39:07;;;;;;;1.23;1.00;;;;;;;;;;5098290;28;20581;-65
2023/08/01 11:41:35;;;;;;;1.48;1.17;;;;;;;;;;5091178;28;20232;-65
2023/08/01 11:44:04;;;;;;;6.80;3.60;;;;;;;;;;5098398;28;20205;-65
2023/08/01 11:46:32;;;;;;;1.30;1.20;;;;;;;;;;5098134;28;20290;-65
2023/08/01 11:49:00;;;;;;;2.90;0.95;;;;;;;;;;5098023;28;20200;-65
2023/08/01 11:51:28;;;;;;;0.98;0.80;;;;;;;;;;5098043;28;20223;-64
2023/08/01 11:54:01;;;;;;;0.73;0.73;;;;;;;;;;5098234;28;20295;-64
2023/08/01 11:56:29;;;;;;;1.60;1.00;;;;;;;;;;5098103;28;20598;-64
2023/08/01 11:58:58;;;;;;;1.52;1.00;;;;;;;;;;5095471;28;20211;-65
2023/08/01 12:01:26;;;;;;;2.25;0.95;;;;;;;;;;5091542;28;20238;-65
2023/08/01 12:03:55;;;;;;;1.20;0.90;;;;;;;;;;5098132;28;20216;-66
2023/08/01 12:06:24;;;;;;;1.50;1.13;;;;;;;;;;5097497;28;20208;-65
2023/08/01 12:08:52;;;;;;;1.15;0.90;;;;;;;;;;5098016;28;20577;-65
2023/08/01 12:11:23;;;;;;;1.55;1.33;;;;;;;;;;5097969;28;20230;-65
2023/08/01 12:14:01;;;;;;;1.73;1.08;;;;;;;;;;5098093;28;20215;-64
2023/08/01 12:16:28;;;;;;;3.33;1.17;;;;;;;;;;5097996;28;20690;-66
2023/08/01 12:18:56;;;;;;;2.10;1.10;;;;;;;;;;5097653;28;20208;-66
2023/08/01 12:21:28;;;;;;;1.70;1.20;;;;;;;;;;5097623;28;20249;-65
2023/08/01 12:23:56;;;;;;;1.10;1.00;;;;;;;;;;5097996;28;20643;-65
2023/08/01 12:26:25;;;;;;;1.00;1.00;;;;;;;;;;5097868;28;20208;-66
2023/08/01 12:28:53;;;;;;;1.63;1.00;;;;;;;;;;5097633;28;20278;-66
2023/08/01 12:31:21;;;;;;;1.80;1.38;;;;;;;;;;5097347;28;20223;-66
2023/08/01 12:33:49;;;;;;;2.92;0.98;;;;;;;;;;5100624;28;20294;-66
2023/08/01 12:36:17;;;;;;;1.23;1.02;;;;;;;;;;5101355;28;20257;-65
2023/08/01 12:38:44;;;;;;;1.17;0.98;;;;;;;;;;5101923;28;20205;-66
2023/08/01 12:41:12;;;;;;;1.25;1.15;;;;;;;;;;5095662;28;20229;-65
2023/08/01 12:43:42;;;;;;;1.10;1.00;;;;;;;;;;5101796;28;20278;-66
2023/08/01 12:46:09;;;;;;;2.08;1.17;;;;;;;;;;5101736;28;20743;-65
2023/08/01 12:48:37;;;;;;;0.90;0.90;;;;;;;;;;5101589;28;20239;-65
2023/08/01 12:51:05;;;;;;;0.98;0.90;;;;;;;;;;5101245;28;20232;-65
2023/08/01 12:53:33;;;;;;;3.87;1.47;;;;;;;;;;5101643;28;20219;-66
2023/08/01 12:56:01;;;;;;;1.38;1.25;;;;;;;;;;5101674;28;20216;-66
2023/08/01 12:58:28;;;;;;;1.47;1.37;;;;;;;;;;5101265;28;20201;-66
2023/08/01 13:00:58;;;;;;;1.55;1.35;;;;;;;;;;5091075;28;20233;-64
2023/08/01 13:03:25;;;;;;;1.70;1.50;;;;;;;;;;5101221;28;20300;-65
2023/08/01 13:05:58;;;;;;;1.27;1.17;;;;;;;;;;5100770;28;20207;-65
2023/08/01 13:08:26;;;;;;;3.95;1.63;;;;;;;;;;5101342;28;20206;-65
2023/08/01 13:10:53;;;;;;;1.77;1.60;;;;;;;;;;5101285;28;20226;-64
2023/08/01 13:13:21;;;;;;;4.93;1.52;;;;;;;;;;5100952;28;20541;-65
2023/08/01 13:15:49;;;;;;;1.92;1.38;;;;;;;;;;5101405;28;20299;-65
2023/08/01 13:18:18;;;;;;;3.30;1.50;;;;;;;;;;5101125;28;20266;-65
2023/08/01 13:20:46;;;;;;;1.63;1.52;;;;;;;;;;5100807;28;20226;-66
2023/08/01 13:23:13;;;;;;;1.98;1.42;;;;;;;;;;5100938;28;20205;-65
2023/08/01 13:25:41;;;;;;;1.27;1.17;;;;;;;;;;5101084;28;20549;-66
2023/08/01 13:28:09;;;;;;;2.25;1.52;;;;;;;;;;5100943;28;20216;-65
2023/08/01 13:30:37;;;;;;;1.60;1.45;;;;;;;;;;5100838;28;20226;-64
2023/08/01 13:33:05;;;;;;;1.60;1.42;;;;;;;;;;5100878;28;20231;-64
2023/08/01 13:35:35;;;;;;;2.97;1.58;;;;;;;;;;5100583;28;20215;-66
2023/08/01 13:38:05;;;;;;;1.67;1.25;;;;;;;;;;5100519;28;20214;-66
2023/08/01 13:40:32;;;;;;;1.53;1.30;;;;;;;;;;5093132;28;20295;-65
2023/08/01 13:43:00;;;;;;;3.38;2.58;;;;;;;;;;5100376;28;20655;-65
2023/08/01 13:45:30;;;;;;;1.58;1.45;;;;;;;;;;5099744;28;20213;-66
2023/08/01 13:47:58;;;;;;;1.98;1.45;;;;;;;;;;5100549;28;20214;-65
2023/08/01 13:50:26;;;;;;;2.47;1.25;;;;;;;;;;5100097;28;20254;-66
2023/08/01 13:52:55;;;;;;;1.40;1.20;;;;;;;;;;5100099;28;20285;-66
2023/08/01 13:55:23;;;;;;;1.50;1.40;;;;;;;;;;5100439;28;20213;-65
2023/08/01 13:57:51;;;;;;;2.17;1.38;;;;;;;;;;5100158;28;20640;-64
2023/08/01 14:00:19;;;;;;;1.55;1.42;;;;;;;;;;5089910;28;20254;-64
2023/08/01 14:02:46;;;;;;;1.85;1.30;;;;;;;;;;5099999;28;20698;-65
2023/08/01 14:05:14;;;;;;;1.27;1.17;;;;;;;;;;5100015;28;20280;-65
2023/08/01 14:07:42;;;;;;;1.13;1.10;;;;;;;;;;5099747;28;20208;-66
2023/08/01 14:10:14;;;;;;;1.45;1.13;;;;;;;;;;5099736;28;20639;-65
2023/08/01 14:12:42;;;;;;;1.88;1.67;;;;;;;;;;5100171;28;20204;-65
2023/08/01 14:15:10;;;;;;;1.75;1.65;;;;;;;;;;5099937;28;20227;-66
2023/08/01 14:17:39;;;;;;;2.30;1.90;;;;;;;;;;5100016;28;20211;-65
2023/08/01 14:20:07;;;;;;;2.65;1.95;;;;;;;;;;5099608;28;20322;-65
2023/08/01 14:22:35;;;;;;;2.35;1.90;;;;;;;;;;5099660;28;20293;-65
2023/08/01 14:25:03;;;;;;;2.08;1.90;;;;;;;;;;5099916;28;20208;-65
2023/08/01 14:27:33;;;;;;;2.20;2.00;;;;;;;;;;5099699;28;20205;-65
2023/08/01 14:30:03;;;;;;;3.08;2.17;;;;;;;;;;5099426;28;20653;-65
2023/08/01 14:32:30;;;;;;;2.47;2.00;;;;;;;;;;5099301;28;20231;-65
2023/08/01 14:34:58;;;;;;;2.42;2.22;;;;;;;;;;5099185;28;20571;-65
2023/08/01 14:37:27;;;;;;;1.73;1.63;;;;;;;;;;5099196;28;20275;-65
2023/08/01 14:39:55;;;;;;;3.75;1.80;;;;;;;;;;5095748;28;20583;-66
2023/08/01 14:42:23;;;;;;;2.40;2.03;;;;;;;;;;5096371;28;20221;-65
2023/08/01 14:44:55;;;;;;;2.38;1.95;;;;;;;;;;5099968;28;20538;-65
2023/08/01 14:47:22;;;;;;;1.98;1.80;;;;;;;;;;5099079;28;20227;-66
2023/08/01 14:49:50;;;;;;;2.05;1.88;;;;;;;;;;5098855;28;20254;-65